Time;durP1;ratioP1;P1;durP2;ratioP2;P2;SDS_P1;SDS_P2;PMS_P1;PMS_P2;Temp;Humidity;BMP_temperature;BMP_pressure;BME280_temperature;BME280_humidity;BME280_pressure;Samples;Min_cycle;Max_cycle;Signal;HPM_P1;HPM_P2
2023/11/22 00:02:08;;;;;;;19.63;8.60;;;4.50;99.90;;;;;;5053327;28;20055;-66
2023/11/22 00:04:36;;;;;;;18.38;8.27;;;4.50;99.90;;;;;;5040321;28;20037;-66
2023/11/22 00:07:02;;;;;;;19.38;8.00;;;4.40;99.90;;;;;;5057151;28;20017;-65
2023/11/22 00:09:27;;;;;;;18.42;8.93;;;4.40;99.90;;;;;;5057987;28;20020;-65
2023/11/22 00:11:53;;;;;;;19.55;8.75;;;4.40;99.90;;;;;;5059008;28;20055;-65
2023/11/22 00:14:18;;;;;;;18.83;8.15;;;4.50;99.90;;;;;;5060793;28;20024;-65
2023/11/22 00:16:44;;;;;;;18.92;9.32;;;4.50;99.90;;;;;;5060105;28;20056;-65
2023/11/22 00:19:10;;;;;;;18.60;8.18;;;4.50;99.90;;;;;;5059640;28;20064;-65
2023/11/22 00:21:35;;;;;;;18.23;8.02;;;4.50;99.90;;;;;;5062600;28;20074;-66
2023/11/22 00:24:01;;;;;;;20.63;9.23;;;4.40;99.90;;;;;;5042929;28;20473;-65
2023/11/22 00:26:26;;;;;;;21.77;9.13;;;4.40;99.90;;;;;;5057227;28;20368;-65
2023/11/22 00:28:53;;;;;;;16.55;8.13;;;4.40;99.90;;;;;;5058177;28;20029;-65
2023/11/22 00:31:19;;;;;;;19.77;8.57;;;4.40;99.90;;;;;;5044773;28;20075;-65
2023/11/22 00:33:44;;;;;;;19.40;8.50;;;4.40;99.90;;;;;;5060636;28;20025;-65
2023/11/22 00:36:10;;;;;;;19.38;8.82;;;4.40;99.90;;;;;;5059619;28;20033;-65
2023/11/22 00:38:37;;;;;;;20.52;8.43;;;4.40;99.90;;;;;;5043371;28;20027;-65
2023/11/22 00:41:03;;;;;;;22.13;8.98;;;4.40;99.90;;;;;;5061124;28;20070;-65
2023/11/22 00:43:28;;;;;;;21.63;8.82;;;4.40;99.90;;;;;;5062835;28;20021;-65
2023/11/22 00:45:56;;;;;;;22.77;10.23;;;4.40;99.90;;;;;;5059827;28;20844;-65
2023/11/22 00:48:22;;;;;;;21.30;9.48;;;4.40;99.90;;;;;;5061419;28;20024;-65
2023/11/22 00:50:47;;;;;;;22.00;10.23;;;4.40;99.90;;;;;;5059545;28;20103;-65
2023/11/22 00:53:20;;;;;;;22.48;10.27;;;4.50;99.90;;;;;;5061662;28;20063;-67
2023/11/22 00:55:46;;;;;;;21.88;10.68;;;4.40;99.90;;;;;;5054571;28;20024;-65
2023/11/22 00:58:11;;;;;;;22.25;10.13;;;4.40;99.90;;;;;;5056063;28;20081;-65
2023/11/22 01:00:37;;;;;;;23.25;10.07;;;4.40;99.90;;;;;;5059954;28;20032;-65
2023/11/22 01:03:04;;;;;;;23.17;10.27;;;4.40;99.90;;;;;;5061140;28;20511;-65
2023/11/22 01:05:30;;;;;;;23.88;11.35;;;4.40;99.90;;;;;;5059748;28;20017;-65
2023/11/22 01:07:56;;;;;;;22.77;9.05;;;4.40;99.90;;;;;;5060100;28;20036;-65
2023/11/22 01:10:22;;;;;;;26.75;10.90;;;4.40;99.90;;;;;;5043654;28;20028;-65
2023/11/22 01:12:48;;;;;;;21.85;10.25;;;4.40;99.90;;;;;;5058510;28;20056;-65
2023/11/22 01:15:13;;;;;;;22.30;10.18;;;4.40;99.90;;;;;;5042584;28;20021;-65
2023/11/22 01:17:39;;;;;;;23.05;11.13;;;4.30;99.90;;;;;;5041750;28;20030;-65
2023/11/22 01:20:07;;;;;;;20.52;10.10;;;4.40;99.90;;;;;;5062368;28;20124;-65
2023/11/22 01:22:32;;;;;;;24.58;10.90;;;4.30;99.90;;;;;;5054670;28;20021;-65
2023/11/22 01:25:01;;;;;;;24.30;11.18;;;4.30;99.90;;;;;;5059464;28;20531;-65
2023/11/22 01:27:27;;;;;;;21.30;9.82;;;4.30;99.90;;;;;;5041048;28;20025;-65
2023/11/22 01:29:54;;;;;;;22.85;10.15;;;4.30;99.90;;;;;;5044358;28;20032;-65
2023/11/22 01:32:21;;;;;;;21.98;9.85;;;4.30;99.90;;;;;;5061859;28;20031;-68
2023/11/22 01:34:46;;;;;;;23.42;10.02;;;4.30;99.90;;;;;;5056958;28;20074;-68
2023/11/22 01:37:12;;;;;;;23.25;9.18;;;4.30;99.90;;;;;;5061116;28;20025;-68
2023/11/22 01:39:43;;;;;;;25.40;9.50;;;4.30;99.90;;;;;;5057100;28;20472;-68
2023/11/22 01:42:09;;;;;;;22.73;9.63;;;4.30;99.90;;;;;;5058190;28;20048;-68
2023/11/22 01:44:34;;;;;;;25.23;9.38;;;4.30;99.90;;;;;;5061735;28;20021;-68
2023/11/22 01:47:02;;;;;;;25.05;11.30;;;4.30;99.90;;;;;;5041508;28;20024;-68
2023/11/22 01:49:29;;;;;;;23.88;9.52;;;4.40;99.90;;;;;;5056443;28;20029;-68
2023/11/22 01:51:55;;;;;;;26.30;9.55;;;4.40;99.90;;;;;;5059716;28;20090;-68
2023/11/22 01:54:23;;;;;;;23.85;10.27;;;4.40;99.90;;;;;;5061014;28;20050;-68
2023/11/22 01:56:49;;;;;;;20.83;9.95;;;4.40;99.90;;;;;;5038540;28;20016;-68
2023/11/22 01:59:15;;;;;;;25.23;10.82;;;4.30;99.90;;;;;;5043375;28;20021;-70
2023/11/22 02:01:42;;;;;;;22.63;10.15;;;4.20;99.90;;;;;;5060726;28;20017;-68
2023/11/22 02:04:09;;;;;;;21.50;10.35;;;4.20;99.90;;;;;;5042630;28;20479;-68
2023/11/22 02:06:35;;;;;;;20.85;8.90;;;4.20;99.90;;;;;;5041258;28;20021;-68
2023/11/22 02:09:01;;;;;;;22.80;8.68;;;4.20;99.90;;;;;;5062066;28;20478;-68
2023/11/22 02:11:27;;;;;;;22.10;9.60;;;4.30;99.90;;;;;;5059507;28;20040;-68
2023/11/22 02:13:55;;;;;;;23.67;10.32;;;4.20;99.90;;;;;;5049412;28;20039;-68
2023/11/22 02:16:21;;;;;;;20.33;9.00;;;4.20;99.90;;;;;;5061102;28;20031;-68
2023/11/22 02:18:50;;;;;;;18.40;8.90;;;4.20;99.90;;;;;;5057999;28;20386;-68
2023/11/22 02:21:21;;;;;;;20.40;9.57;;;4.30;99.90;;;;;;5043676;28;20154;-68
2023/11/22 02:23:47;;;;;;;20.45;8.38;;;4.20;99.90;;;;;;5059767;28;20033;-68
2023/11/22 02:26:17;;;;;;;18.58;7.95;;;4.20;99.90;;;;;;5059238;28;20036;-68
2023/11/22 02:28:43;;;;;;;22.98;8.77;;;4.20;99.90;;;;;;5057437;28;20413;-68
2023/11/22 02:31:09;;;;;;;18.38;8.13;;;4.20;99.90;;;;;;5053876;28;20129;-68
2023/11/22 02:33:35;;;;;;;16.58;7.78;;;4.20;99.90;;;;;;5061245;28;20499;-68
2023/11/22 02:36:01;;;;;;;15.60;7.13;;;4.20;99.90;;;;;;5057840;28;20104;-68
2023/11/22 02:38:28;;;;;;;20.05;8.90;;;4.10;99.90;;;;;;5042709;28;20025;-68
2023/11/22 02:40:54;;;;;;;19.05;8.13;;;4.00;99.90;;;;;;5056930;28;20029;-68
2023/11/22 02:43:20;;;;;;;20.33;8.18;;;3.90;99.90;;;;;;5039142;28;20377;-66
2023/11/22 02:45:47;;;;;;;16.50;7.10;;;3.80;99.90;;;;;;5038517;28;20092;-67
2023/11/22 02:48:13;;;;;;;13.88;5.93;;;3.60;99.90;;;;;;5055178;28;20037;-67
2023/11/22 02:50:43;;;;;;;15.20;6.10;;;3.50;99.90;;;;;;5041222;28;20024;-65
2023/11/22 02:53:09;;;;;;;13.75;6.05;;;3.40;99.90;;;;;;5060662;28;20028;-65
2023/11/22 02:55:34;;;;;;;17.52;6.80;;;3.30;99.90;;;;;;5057429;28;20043;-65
2023/11/22 02:58:00;;;;;;;17.60;6.32;;;3.10;99.90;;;;;;5048234;28;20047;-65
2023/11/22 03:00:26;;;;;;;17.75;7.05;;;2.90;99.90;;;;;;5039650;28;20029;-66
2023/11/22 03:02:53;;;;;;;17.73;6.97;;;2.80;99.90;;;;;;5058436;28;20540;-66
2023/11/22 03:05:22;;;;;;;16.38;6.95;;;2.70;99.90;;;;;;5041806;28;20031;-66
2023/11/22 03:07:50;;;;;;;17.40;7.10;;;2.50;99.90;;;;;;5017900;28;20034;-66
2023/11/22 03:10:17;;;;;;;15.38;6.35;;;2.40;99.90;;;;;;5059916;28;20055;-66
2023/11/22 03:12:43;;;;;;;21.50;7.25;;;2.40;99.90;;;;;;5057348;28;20033;-66
2023/11/22 03:15:12;;;;;;;16.63;6.90;;;2.30;99.90;;;;;;5041928;28;20025;-66
2023/11/22 03:17:41;;;;;;;16.67;7.35;;;2.30;99.90;;;;;;5057244;28;20387;-67
2023/11/22 03:20:11;;;;;;;16.23;6.65;;;2.10;99.90;;;;;;5058323;28;20099;-67
2023/11/22 03:22:37;;;;;;;17.75;7.30;;;2.10;99.90;;;;;;5058983;28;20381;-65
2023/11/22 03:25:06;;;;;;;14.60;7.00;;;2.10;99.90;;;;;;5042313;28;20029;-65
2023/11/22 03:27:32;;;;;;;17.02;6.90;;;2.10;99.90;;;;;;5050663;28;20033;-65
2023/11/22 03:29:59;;;;;;;17.52;7.63;;;2.00;99.90;;;;;;5056628;28;20041;-65
2023/11/22 03:32:24;;;;;;;16.35;6.40;;;2.00;99.90;;;;;;5040210;28;20488;-65
2023/11/22 03:34:50;;;;;;;18.75;7.45;;;1.90;99.90;;;;;;5038642;28;20040;-67
2023/11/22 03:37:17;;;;;;;14.52;5.93;;;1.80;99.90;;;;;;5057916;28;20408;-66
2023/11/22 03:39:48;;;;;;;17.75;6.47;;;1.70;99.90;;;;;;5057162;28;20067;-66
2023/11/22 03:42:14;;;;;;;;;;;1.60;99.90;;;;;;5066335;28;20023;-66
2023/11/22 03:44:40;;;;;;;17.35;6.90;;;1.50;99.90;;;;;;5061409;28;19979;-66
2023/11/22 03:47:06;;;;;;;15.60;6.40;;;1.40;99.90;;;;;;5066325;28;20165;-67
2023/11/22 03:49:32;;;;;;;16.98;6.78;;;1.40;99.90;;;;;;5042667;28;20029;-66
2023/11/22 03:51:58;;;;;;;16.30;6.43;;;1.30;99.90;;;;;;5054798;28;20056;-66
2023/11/22 03:54:23;;;;;;;15.63;7.30;;;1.20;99.90;;;;;;5062281;28;20045;-66
2023/11/22 03:56:49;;;;;;;14.65;6.20;;;1.00;99.90;;;;;;5057063;28;20028;-66
2023/11/22 03:59:14;;;;;;;14.60;5.68;;;0.80;99.90;;;;;;5058409;28;20025;-66
2023/11/22 04:01:40;;;;;;;15.63;6.15;;;0.70;99.90;;;;;;5062751;28;20095;-66
2023/11/22 04:04:06;;;;;;;15.82;5.78;;;0.40;99.90;;;;;;5063550;28;20017;-67
2023/11/22 04:06:33;;;;;;;16.52;6.15;;;0.20;99.90;;;;;;5059470;28;20803;-67
2023/11/22 04:08:59;;;;;;;18.15;6.20;;;0.10;99.90;;;;;;5061252;28;20114;-67
2023/11/22 04:11:24;;;;;;;17.40;6.93;;;-0.10;99.90;;;;;;5043525;28;20032;-67
2023/11/22 04:13:50;;;;;;;15.52;5.50;;;-0.20;99.90;;;;;;5042926;28;20040;-68
2023/11/22 04:16:17;;;;;;;16.17;6.00;;;-0.20;99.90;;;;;;5061066;28;20041;-68
2023/11/22 04:18:43;;;;;;;16.27;6.38;;;-0.30;99.90;;;;;;5059500;28;20017;-68
2023/11/22 04:21:09;;;;;;;18.95;7.18;;;-0.50;99.90;;;;;;5042712;28;20028;-68
2023/11/22 04:23:35;;;;;;;18.45;7.50;;;-0.40;99.90;;;;;;5062233;28;20365;-68
2023/11/22 04:26:01;;;;;;;27.10;8.20;;;-0.30;99.90;;;;;;5059225;28;20036;-68
2023/11/22 04:28:29;;;;;;;21.67;7.78;;;-0.20;99.90;;;;;;5062359;28;20025;-68
2023/11/22 04:30:56;;;;;;;21.48;8.45;;;-0.10;99.90;;;;;;5038460;28;20140;-68
2023/11/22 04:33:24;;;;;;;21.58;8.23;;;-0.10;99.90;;;;;;5062317;28;20021;-68
2023/11/22 04:35:50;;;;;;;20.73;8.52;;;-0.30;99.90;;;;;;5064846;28;20384;-68
2023/11/22 04:38:17;;;;;;;21.23;8.23;;;-0.50;99.90;;;;;;5062305;28;20025;-68
2023/11/22 04:40:43;;;;;;;21.70;8.63;;;-0.60;99.90;;;;;;5060279;28;20013;-68
2023/11/22 04:43:09;;;;;;;22.30;8.70;;;-0.80;99.90;;;;;;5059353;28;20707;-68
2023/11/22 04:45:35;;;;;;;21.23;8.45;;;-0.90;99.90;;;;;;5044458;28;20025;-68
2023/11/22 04:48:01;;;;;;;17.48;7.22;;;-1.00;99.90;;;;;;5060700;28;20033;-68
2023/11/22 04:50:26;;;;;;;19.52;8.02;;;-1.00;99.90;;;;;;5060054;28;20028;-68
2023/11/22 04:52:52;;;;;;;20.30;7.93;;;-1.10;99.90;;;;;;5060055;28;20035;-68
2023/11/22 04:55:22;;;;;;;23.00;8.73;;;-1.10;99.90;;;;;;5061943;28;20103;-68
2023/11/22 04:57:48;;;;;;;;;;;-1.10;99.90;;;;;;5039153;28;20021;-68
2023/11/22 05:00:17;;;;;;;25.10;8.40;;;-1.00;99.90;;;;;;5060373;28;20464;-68
2023/11/22 05:02:42;;;;;;;22.58;8.20;;;-1.00;99.90;;;;;;5057551;28;20027;-68
2023/11/22 05:05:11;;;;;;;25.48;7.97;;;-0.90;99.90;;;;;;5062044;28;20047;-68
2023/11/22 05:07:37;;;;;;;21.45;8.50;;;-0.90;99.90;;;;;;5051028;28;20029;-68
2023/11/22 05:10:04;;;;;;;23.70;9.05;;;-1.00;99.90;;;;;;5058433;28;20056;-68
2023/11/22 05:12:29;;;;;;;27.23;8.55;;;-1.10;99.90;;;;;;5058396;28;20040;-66
2023/11/22 05:14:55;;;;;;;19.85;8.10;;;-1.10;99.90;;;;;;5056189;28;20165;-65
2023/11/22 05:17:20;;;;;;;19.85;7.90;;;-1.20;99.90;;;;;;5036118;28;20107;-65
2023/11/22 05:19:46;;;;;;;24.33;9.15;;;-1.20;99.90;;;;;;5052011;28;20128;-66
2023/11/22 05:22:12;;;;;;;28.60;8.73;;;-1.20;99.90;;;;;;5056093;28;20027;-64
2023/11/22 05:24:41;;;;;;;21.88;8.70;;;-1.20;99.90;;;;;;5059122;28;20021;-66
2023/11/22 05:27:07;;;;;;;24.95;7.88;;;-1.30;99.90;;;;;;5056588;28;20100;-64
2023/11/22 05:29:33;;;;;;;19.23;8.57;;;-1.30;99.90;;;;;;5055290;28;20083;-65
2023/11/22 05:31:59;;;;;;;23.95;8.32;;;-1.20;99.90;;;;;;5032117;28;20028;-64
2023/11/22 05:34:25;;;;;;;19.35;8.02;;;-1.00;99.90;;;;;;5047944;28;20025;-64
2023/11/22 05:36:52;;;;;;;17.70;7.75;;;-1.00;99.90;;;;;;5047899;28;20071;-64
2023/11/22 05:39:18;;;;;;;24.08;8.25;;;-1.00;99.90;;;;;;5053244;28;20079;-64
2023/11/22 05:41:44;;;;;;;20.67;8.05;;;-0.90;99.90;;;;;;5049799;28;20391;-64
2023/11/22 05:44:09;;;;;;;18.02;7.38;;;-1.00;99.90;;;;;;5054072;28;20059;-64
2023/11/22 05:46:35;;;;;;;25.23;9.10;;;-1.10;99.90;;;;;;5039680;28;20055;-65
2023/11/22 05:49:01;;;;;;;20.70;7.38;;;-1.00;99.90;;;;;;5053273;28;20102;-64
2023/11/22 05:51:29;;;;;;;20.85;7.57;;;-1.00;99.90;;;;;;5046839;28;20349;-64
2023/11/22 05:53:54;;;;;;;20.38;8.32;;;-1.00;99.90;;;;;;5038512;28;20065;-64
2023/11/22 05:56:20;;;;;;;23.20;8.07;;;-1.10;99.90;;;;;;5048477;28;20079;-65
2023/11/22 05:58:45;;;;;;;18.92;8.07;;;-1.20;99.90;;;;;;5046220;28;20032;-65
2023/11/22 06:01:14;;;;;;;25.27;8.35;;;-1.30;99.90;;;;;;5038402;28;20037;-64
2023/11/22 06:03:40;;;;;;;22.90;9.00;;;-1.40;99.90;;;;;;5051557;28;20017;-64
2023/11/22 06:06:06;;;;;;;24.23;8.95;;;-1.40;99.90;;;;;;5036374;28;20402;-64
2023/11/22 06:08:37;;;;;;;21.88;8.25;;;-1.30;99.90;;;;;;5048218;28;20440;-64
2023/11/22 06:11:03;;;;;;;23.27;8.45;;;-1.30;99.90;;;;;;5035374;28;20131;-64
2023/11/22 06:13:29;;;;;;;19.45;7.55;;;-1.40;99.90;;;;;;5056634;28;20100;-64
2023/11/22 06:15:54;;;;;;;20.67;7.75;;;-1.50;99.90;;;;;;5059770;28;20068;-64
2023/11/22 06:18:20;;;;;;;23.27;9.10;;;-1.50;99.90;;;;;;5041558;28;20043;-64
2023/11/22 06:20:48;;;;;;;27.95;8.50;;;-1.70;99.90;;;;;;5044307;28;20534;-64
2023/11/22 06:23:13;;;;;;;25.95;10.10;;;-1.70;99.90;;;;;;5061265;28;20028;-65
2023/11/22 06:25:43;;;;;;;23.80;9.25;;;-1.80;99.90;;;;;;5062297;28;20352;-65
2023/11/22 06:28:09;;;;;;;20.13;8.40;;;-1.80;99.90;;;;;;5060773;28;20357;-65
2023/11/22 06:30:34;;;;;;;25.08;8.98;;;-1.70;99.90;;;;;;5061824;28;20292;-65
2023/11/22 06:33:01;;;;;;;21.23;8.48;;;-2.00;99.90;;;;;;5059851;28;20016;-65
2023/11/22 06:35:29;;;;;;;22.13;8.73;;;-2.00;99.90;;;;;;5062130;28;20024;-65
2023/11/22 06:37:54;;;;;;;25.63;9.35;;;-2.10;99.90;;;;;;5047752;28;20020;-65
2023/11/22 06:40:20;;;;;;;25.85;9.88;;;-2.10;99.90;;;;;;5043679;28;20032;-65
2023/11/22 06:42:46;;;;;;;26.58;9.45;;;-2.00;99.90;;;;;;5057717;28;20029;-66
2023/11/22 06:45:15;;;;;;;27.13;10.20;;;-2.10;99.90;;;;;;5045735;28;20502;-65
2023/11/22 06:47:42;;;;;;;26.00;9.70;;;-1.90;99.90;;;;;;5058185;28;20465;-65
2023/11/22 06:50:10;;;;;;;25.52;10.15;;;-1.90;99.90;;;;;;5058161;28;20123;-65
2023/11/22 06:52:40;;;;;;;26.98;9.88;;;-2.00;99.90;;;;;;5058498;28;20032;-65
2023/11/22 06:55:07;;;;;;;27.77;10.15;;;-2.10;99.90;;;;;;5058751;28;20345;-65
2023/11/22 06:57:34;;;;;;;29.77;9.82;;;-2.10;99.90;;;;;;5039109;28;20024;-65
2023/11/22 07:00:01;;;;;;;25.23;10.20;;;-2.20;99.90;;;;;;5056741;28;20041;-65
2023/11/22 07:02:26;;;;;;;27.02;10.52;;;-2.10;99.90;;;;;;5058808;28;20043;-65
2023/11/22 07:04:54;;;;;;;27.55;10.68;;;-2.10;99.90;;;;;;5054534;28;20617;-65
2023/11/22 07:07:20;;;;;;;35.28;11.10;;;-2.10;99.90;;;;;;5054118;28;20039;-66
2023/11/22 07:09:46;;;;;;;25.75;10.10;;;-2.00;99.90;;;;;;5058731;28;20104;-66
2023/11/22 07:12:12;;;;;;;27.88;10.25;;;-2.00;99.90;;;;;;5056877;28;20123;-65
2023/11/22 07:14:38;;;;;;;36.33;11.10;;;-2.00;99.90;;;;;;5056197;28;20109;-65
2023/11/22 07:17:06;;;;;;;23.88;9.43;;;-1.80;99.90;;;;;;5060730;28;20526;-65
2023/11/22 07:19:34;;;;;;;27.20;10.50;;;-1.60;99.90;;;;;;5061927;28;20418;-65
2023/11/22 07:22:01;;;;;;;28.40;10.68;;;-1.70;99.90;;;;;;5059430;28;20024;-65
2023/11/22 07:24:27;;;;;;;28.08;11.77;;;-1.60;99.90;;;;;;5061414;28;20345;-65
2023/11/22 07:26:53;;;;;;;26.35;10.48;;;-1.40;99.90;;;;;;5039276;28;20028;-65
2023/11/22 07:29:18;;;;;;;30.00;10.40;;;-1.40;99.90;;;;;;5059252;28;20081;-65
2023/11/22 07:31:44;;;;;;;29.92;11.10;;;-1.60;99.90;;;;;;5061967;28;20228;-65
2023/11/22 07:34:11;;;;;;;33.85;11.55;;;-1.10;99.90;;;;;;5059005;28;20104;-65
2023/11/22 07:36:39;;;;;;;31.17;11.23;;;-1.10;99.90;;;;;;5061390;28;20143;-65
2023/11/22 07:39:04;;;;;;;33.13;11.38;;;-1.10;99.90;;;;;;5060032;28;20123;-65
2023/11/22 07:41:31;;;;;;;27.90;10.93;;;-1.10;99.90;;;;;;5059981;28;20095;-65
2023/11/22 07:43:58;;;;;;;31.90;11.48;;;-1.00;99.90;;;;;;5061666;28;20016;-65
2023/11/22 07:46:23;;;;;;;32.63;11.48;;;-1.00;99.90;;;;;;5040040;28;20025;-65
2023/11/22 07:48:49;;;;;;;29.42;10.80;;;-1.00;99.90;;;;;;5061952;28;20115;-65
2023/11/22 07:51:18;;;;;;;27.38;10.40;;;-1.00;99.90;;;;;;5059876;28;20648;-65
2023/11/22 07:53:43;;;;;;;28.77;11.02;;;-0.90;99.90;;;;;;5062675;28;20150;-65
2023/11/22 07:56:11;;;;;;;34.22;11.27;;;-0.90;99.90;;;;;;5058635;28;20043;-65
2023/11/22 07:58:37;;;;;;;29.77;11.68;;;-0.70;99.90;;;;;;5059637;28;20009;-65
2023/11/22 08:01:06;;;;;;;26.35;10.25;;;-0.70;99.90;;;;;;5059050;28;20032;-65
2023/11/22 08:03:32;;;;;;;27.75;10.75;;;-0.70;99.90;;;;;;5041577;28;20021;-65
2023/11/22 08:05:57;;;;;;;36.25;12.85;;;-0.70;99.90;;;;;;5061068;28;20044;-65
2023/11/22 08:08:23;;;;;;;29.88;12.98;;;-0.80;99.90;;;;;;5058436;28;20028;-65
2023/11/22 08:10:53;;;;;;;29.48;10.73;;;-0.70;99.90;;;;;;5061565;28;20124;-65
2023/11/22 08:13:22;;;;;;;29.05;11.90;;;-0.60;99.90;;;;;;5069462;28;20048;-65
2023/11/22 08:15:48;;;;;;;24.88;10.30;;;-0.50;99.90;;;;;;5079719;28;20088;-65
2023/11/22 08:18:16;;;;;;;29.75;10.55;;;-0.40;99.90;;;;;;5081054;28;20107;-65
2023/11/22 08:20:43;;;;;;;30.20;11.38;;;-0.30;99.90;;;;;;5075904;28;20365;-65
2023/11/22 08:23:10;;;;;;;30.85;11.48;;;-0.10;99.90;;;;;;5081408;28;20024;-65
2023/11/22 08:25:38;;;;;;;31.70;11.63;;;0.00;99.90;;;;;;5079034;28;20024;-65
2023/11/22 08:28:04;;;;;;;32.67;11.77;;;0.00;99.90;;;;;;5075595;28;20356;-65
2023/11/22 08:30:32;;;;;;;30.40;11.70;;;0.10;99.90;;;;;;5079106;28;20020;-65
2023/11/22 08:32:58;;;;;;;36.47;11.07;;;0.20;99.90;;;;;;5073941;28;20066;-65
2023/11/22 08:35:24;;;;;;;26.30;10.38;;;0.50;99.90;;;;;;5078058;28;20060;-65
2023/11/22 08:37:50;;;;;;;26.35;9.70;;;0.80;99.90;;;;;;5079647;28;20182;-65
2023/11/22 08:40:20;;;;;;;22.77;9.60;;;1.30;99.90;;;;;;5083797;28;20016;-65
2023/11/22 08:42:46;;;;;;;19.07;7.63;;;1.60;99.90;;;;;;5077446;28;20056;-66
2023/11/22 08:45:11;;;;;;;14.65;6.28;;;2.20;99.90;;;;;;5081165;28;20051;-66
2023/11/22 08:47:39;;;;;;;13.38;5.82;;;2.60;99.90;;;;;;5078284;28;20095;-66
2023/11/22 08:50:06;;;;;;;14.50;6.18;;;2.90;99.90;;;;;;5077477;28;20100;-66
2023/11/22 08:52:32;;;;;;;13.88;5.97;;;3.10;99.90;;;;;;5079487;28;20032;-66
2023/11/22 08:54:57;;;;;;;12.27;5.22;;;3.50;99.90;;;;;;5077489;28;20067;-66
2023/11/22 08:57:23;;;;;;;13.00;5.65;;;3.80;99.90;;;;;;5075761;28;20114;-66
2023/11/22 08:59:48;;;;;;;13.52;5.85;;;4.10;99.90;;;;;;5078039;28;20547;-66
2023/11/22 09:02:15;;;;;;;11.88;5.03;;;4.50;99.90;;;;;;5078631;28;20017;-66
2023/11/22 09:04:41;;;;;;;10.65;4.75;;;4.90;99.90;;;;;;5078107;28;20027;-66
2023/11/22 09:07:09;;;;;;;11.48;4.72;;;5.30;99.90;;;;;;5075319;28;20086;-66
2023/11/22 09:09:36;;;;;;;14.77;4.78;;;5.30;99.90;;;;;;5079896;28;20089;-66
2023/11/22 09:12:01;;;;;;;13.77;5.30;;;5.30;99.90;;;;;;5072238;28;20056;-66
2023/11/22 09:14:28;;;;;;;10.65;4.45;;;5.30;99.90;;;;;;5056314;28;20040;-66
2023/11/22 09:16:56;;;;;;;11.93;5.22;;;5.40;99.90;;;;;;5040020;28;20103;-66
2023/11/22 09:19:23;;;;;;;13.07;4.88;;;5.60;99.90;;;;;;5059577;28;20024;-66
2023/11/22 09:21:48;;;;;;;11.93;4.40;;;5.90;99.90;;;;;;5056405;28;20031;-66
2023/11/22 09:24:14;;;;;;;11.48;5.07;;;6.10;99.90;;;;;;5059913;28;20028;-66
2023/11/22 09:26:41;;;;;;;12.63;4.63;;;6.40;99.90;;;;;;5055364;28;20102;-66
2023/11/22 09:29:06;;;;;;;11.50;4.85;;;6.70;99.90;;;;;;5056522;28;20088;-66
2023/11/22 09:31:32;;;;;;;12.13;4.90;;;6.80;99.90;;;;;;5058822;28;20099;-66
2023/11/22 09:33:58;;;;;;;10.80;4.70;;;6.60;99.90;;;;;;5056641;28;20685;-66
2023/11/22 09:36:27;;;;;;;11.00;4.80;;;6.20;99.90;;;;;;5052645;28;20017;-66
2023/11/22 09:38:53;;;;;;;9.98;4.32;;;5.80;99.90;;;;;;5040130;28;20027;-66
2023/11/22 09:41:18;;;;;;;12.95;5.18;;;5.30;99.90;;;;;;5058898;28;20052;-66
2023/11/22 09:43:49;;;;;;;11.07;4.85;;;5.20;99.90;;;;;;5040284;28;20118;-66
2023/11/22 09:46:17;;;;;;;11.75;5.53;;;5.20;99.90;;;;;;5056172;28;20029;-66
2023/11/22 09:48:46;;;;;;;11.60;5.13;;;5.10;99.90;;;;;;5039884;28;20101;-66
2023/11/22 09:51:14;;;;;;;12.32;5.43;;;5.10;99.90;;;;;;5058241;28;20021;-66
2023/11/22 09:53:42;;;;;;;12.55;5.30;;;4.90;99.90;;;;;;5048694;28;20024;-65
2023/11/22 09:56:09;;;;;;;10.85;4.60;;;4.90;99.90;;;;;;5048026;28;20513;-65
2023/11/22 09:58:39;;;;;;;12.52;4.35;;;4.90;99.90;;;;;;5054567;28;20017;-65
2023/11/22 10:01:07;;;;;;;11.40;4.40;;;4.90;99.90;;;;;;5041758;28;20035;-65
2023/11/22 10:03:33;;;;;;;10.98;4.30;;;4.90;99.90;;;;;;5037960;28;20032;-65
2023/11/22 10:05:59;;;;;;;11.10;4.78;;;4.90;99.90;;;;;;5056083;28;20033;-65
2023/11/22 10:08:31;;;;;;;10.98;4.50;;;4.80;99.90;;;;;;5058448;28;20024;-65
2023/11/22 10:10:57;;;;;;;11.88;4.90;;;4.60;99.90;;;;;;5048465;28;20025;-65
2023/11/22 10:13:23;;;;;;;12.75;4.38;;;4.60;99.90;;;;;;5056039;28;20053;-65
2023/11/22 10:15:50;;;;;;;10.60;4.38;;;4.80;99.90;;;;;;5054476;28;20036;-65
2023/11/22 10:18:21;;;;;;;14.05;5.40;;;4.90;99.90;;;;;;5059251;28;20126;-66
2023/11/22 10:20:51;;;;;;;11.98;4.68;;;4.80;99.90;;;;;;5057037;28;20584;-65
2023/11/22 10:23:19;;;;;;;12.55;4.82;;;4.70;99.90;;;;;;5056367;28;20033;-65
2023/11/22 10:25:52;;;;;;;9.77;4.00;;;4.70;99.90;;;;;;5051572;28;20060;-65
2023/11/22 10:28:22;;;;;;;10.95;4.65;;;4.80;99.90;;;;;;5054992;28;20020;-65
2023/11/22 10:30:52;;;;;;;11.63;4.60;;;5.00;99.90;;;;;;5056682;28;20035;-65
2023/11/22 10:33:19;;;;;;;9.98;4.30;;;5.10;99.90;;;;;;5037410;28;20484;-65
2023/11/22 10:35:51;;;;;;;10.32;4.53;;;5.20;99.90;;;;;;5038435;28;20025;-65
2023/11/22 10:38:17;;;;;;;12.15;4.35;;;5.30;99.90;;;;;;5058254;28;20059;-65
2023/11/22 10:40:44;;;;;;;11.18;4.30;;;5.30;99.90;;;;;;5036447;28;20603;-65
2023/11/22 10:43:14;;;;;;;9.18;3.78;;;5.40;99.90;;;;;;5046758;28;20021;-65
2023/11/22 10:45:44;;;;;;;10.40;3.93;;;5.50;99.90;;;;;;5055039;28;20392;-65
2023/11/22 10:48:11;;;;;;;9.70;4.00;;;5.50;99.90;;;;;;5056158;28;20781;-65
2023/11/22 10:50:37;;;;;;;11.25;3.50;;;5.50;99.90;;;;;;5038894;28;20078;-65
2023/11/22 10:53:06;;;;;;;8.20;3.33;;;5.80;99.90;;;;;;5055452;28;20112;-65
2023/11/22 10:55:33;;;;;;;9.82;3.47;;;6.10;99.90;;;;;;5056309;28;20038;-65
2023/11/22 10:58:06;;;;;;;11.00;3.90;;;6.30;99.90;;;;;;5054613;28;20021;-65
2023/11/22 11:00:33;;;;;;;8.82;3.45;;;6.20;99.90;;;;;;5049932;28;20445;-65
2023/11/22 11:03:09;;;;;;;8.45;3.42;;;6.00;99.90;;;;;;5040678;28;20129;-65
2023/11/22 11:05:41;;;;;;;10.65;4.35;;;5.90;99.90;;;;;;5055009;28;20271;-65
2023/11/22 11:08:11;;;;;;;9.35;3.65;;;6.10;99.90;;;;;;5053233;28;20036;-65
2023/11/22 11:10:44;;;;;;;10.18;3.58;;;6.20;99.90;;;;;;5056175;28;20020;-65
2023/11/22 11:13:11;;;;;;;8.60;3.17;;;6.00;99.50;;;;;;5058688;28;20127;-65
2023/11/22 11:15:42;;;;;;;8.52;3.72;;;5.90;98.70;;;;;;5037699;28;20033;-65
2023/11/22 11:18:10;;;;;;;11.02;4.10;;;5.70;99.90;;;;;;5053450;28;20029;-65
2023/11/22 11:20:53;;;;;;;9.63;4.57;;;6.00;99.90;;;;;;5053784;28;20029;-65
2023/11/22 11:23:24;;;;;;;7.75;3.15;;;6.50;99.90;;;;;;5020632;28;20062;-66
2023/11/22 11:25:53;;;;;;;8.43;2.70;;;7.10;99.00;;;;;;5054168;28;20392;-66
2023/11/22 11:28:19;;;;;;;13.02;4.22;;;7.70;95.50;;;;;;5037589;28;20671;-66
2023/11/22 11:30:49;;;;;;;7.30;2.88;;;8.00;93.30;;;;;;5055037;28;20024;-66
2023/11/22 11:33:36;;;;;;;7.68;2.83;;;8.00;92.50;;;;;;5057682;28;20040;-66
2023/11/22 11:36:06;;;;;;;8.05;3.00;;;8.10;94.90;;;;;;5055169;28;20404;-66
2023/11/22 11:38:38;;;;;;;12.35;3.85;;;8.30;92.60;;;;;;5057765;28;20098;-65
2023/11/22 11:41:12;;;;;;;9.02;3.13;;;8.40;92.80;;;;;;5032970;28;20089;-65
2023/11/22 11:43:43;;;;;;;8.70;3.53;;;8.50;94.10;;;;;;5057480;28;20044;-65
2023/11/22 11:46:10;;;;;;;7.40;2.72;;;8.50;91.90;;;;;;5018613;28;20041;-65
2023/11/22 11:48:36;;;;;;;7.90;2.17;;;8.70;93.10;;;;;;5056304;28;20028;-65
2023/11/22 11:51:02;;;;;;;7.22;2.75;;;9.10;80.00;;;;;;5044951;28;20056;-65
2023/11/22 11:53:27;;;;;;;7.10;2.72;;;9.40;86.30;;;;;;5054338;28;20029;-65
2023/11/22 11:55:57;;;;;;;7.18;2.28;;;9.40;81.70;;;;;;5036858;28;20399;-65
2023/11/22 11:58:23;;;;;;;5.70;2.33;;;9.40;81.70;;;;;;5037411;28;20052;-66
2023/11/22 12:00:52;;;;;;;8.63;2.78;;;9.10;73.60;;;;;;5054712;28;20085;-65
2023/11/22 12:03:20;;;;;;;6.25;2.40;;;8.80;88.30;;;;;;5042572;28;20020;-65
2023/11/22 12:05:47;;;;;;;7.20;2.85;;;8.80;85.30;;;;;;5057348;28;20064;-65
2023/11/22 12:08:15;;;;;;;8.48;3.08;;;8.60;78.20;;;;;;5060987;28;20069;-66
2023/11/22 12:10:41;;;;;;;6.63;2.50;;;8.20;86.60;;;;;;5049922;28;20148;-65
2023/11/22 12:13:08;;;;;;;9.38;2.78;;;7.90;91.50;;;;;;5059091;28;20040;-65
2023/11/22 12:15:34;;;;;;;6.30;2.38;;;7.90;83.30;;;;;;5057092;28;20166;-65
2023/11/22 12:18:03;;;;;;;7.20;2.70;;;8.00;92.30;;;;;;5061408;28;20017;-65
2023/11/22 12:20:32;;;;;;;7.67;3.10;;;8.50;82.20;;;;;;5040399;28;20025;-65
2023/11/22 12:23:00;;;;;;;9.45;3.45;;;9.20;84.10;;;;;;5059541;28;20211;-68
2023/11/22 12:25:30;;;;;;;8.23;3.00;;;9.70;79.60;;;;;;5060790;28;20372;-68
2023/11/22 12:27:56;;;;;;;10.52;3.20;;;10.40;71.30;;;;;;5026118;28;20037;-68
2023/11/22 12:30:35;;;;;;;7.72;2.63;;;11.00;71.90;;;;;;5040572;28;20033;-68
2023/11/22 12:33:02;;;;;;;11.07;3.00;;;11.30;67.80;;;;;;5043034;28;20077;-68
2023/11/22 12:35:29;;;;;;;6.72;2.35;;;11.30;68.40;;;;;;5060654;28;20140;-68
2023/11/22 12:37:54;;;;;;;8.88;2.50;;;11.20;65.00;;;;;;5057653;28;20143;-68
2023/11/22 12:40:20;;;;;;;7.88;3.03;;;11.10;66.60;;;;;;5059501;28;20029;-68
2023/11/22 12:42:53;;;;;;;7.88;2.95;;;11.00;64.80;;;;;;5057893;28;20036;-68